sensor_id;sensor_type;location;lat;lon;timestamp;pressure;altitude;pressure_sealevel;temperature;humidity
21100;BME280;10708;50.824;4.408;2022-09-03T00:03:29;99936.78;;;19.74;100.00
21100;BME280;10708;50.824;4.408;2022-09-03T00:08:36;99929.47;;;19.76;100.00
21100;BME280;10708;50.824;4.408;2022-09-03T00:13:44;99932.59;;;19.81;100.00
21100;BME280;10708;50.824;4.408;2022-09-03T00:18:52;99924.34;;;19.84;100.00
21100;BME280;10708;50.824;4.408;2022-09-03T00:23:58;99932.91;;;19.87;100.00
21100;BME280;10708;50.824;4.408;2022-09-03T00:29:06;99936.31;;;19.89;100.00
21100;BME280;10708;50.824;4.408;2022-09-03T00:34:15;99936.19;;;19.91;100.00
21100;BME280;10708;50.824;4.408;2022-09-03T00:39:23;99933.41;;;19.93;100.00
21100;BME280;10708;50.824;4.408;2022-09-03T00:44:37;99935.34;;;19.90;100.00
21100;BME280;10708;50.824;4.408;2022-09-03T00:49:54;99940.09;;;19.87;100.00
21100;BME280;10708;50.824;4.408;2022-09-03T00:55:04;99934.91;;;19.85;100.00
21100;BME280;10708;50.824;4.408;2022-09-03T01:00:11;99936.97;;;19.82;100.00
21100;BME280;10708;50.824;4.408;2022-09-03T01:05:25;99944.38;;;19.78;100.00
21100;BME280;10708;50.824;4.408;2022-09-03T01:10:35;99942.97;;;19.74;100.00
21100;BME280;10708;50.824;4.408;2022-09-03T01:15:51;99935.06;;;19.73;100.00
21100;BME280;10708;50.824;4.408;2022-09-03T01:21:09;99955.34;;;19.75;100.00
21100;BME280;10708;50.824;4.408;2022-09-03T01:26:39;99951.31;;;19.81;100.00
21100;BME280;10708;50.824;4.408;2022-09-03T01:31:53;99949.47;;;19.81;100.00
21100;BME280;10708;50.824;4.408;2022-09-03T01:37:06;99949.47;;;19.81;100.00
21100;BME280;10708;50.824;4.408;2022-09-03T01:42:20;99950.44;;;19.80;100.00
21100;BME280;10708;50.824;4.408;2022-09-03T01:47:30;99951.31;;;19.81;100.00
21100;BME280;10708;50.824;4.408;2022-09-03T01:52:44;99948.63;;;19.81;100.00
21100;BME280;10708;50.824;4.408;2022-09-03T01:57:51;99953.00;;;19.82;100.00
21100;BME280;10708;50.824;4.408;2022-09-03T02:03:01;99951.06;;;19.84;100.00
21100;BME280;10708;50.824;4.408;2022-09-03T02:08:07;99959.66;;;19.87;100.00
21100;BME280;10708;50.824;4.408;2022-09-03T02:13:12;99948.97;;;19.87;100.00
21100;BME280;10708;50.824;4.408;2022-09-03T02:18:18;99942.19;;;19.83;100.00
21100;BME280;10708;50.824;4.408;2022-09-03T02:23:21;99948.50;;;19.82;100.00
21100;BME280;10708;50.824;4.408;2022-09-03T02:28:25;99952.16;;;19.81;100.00
21100;BME280;10708;50.824;4.408;2022-09-03T02:33:29;99955.78;;;19.80;100.00
21100;BME280;10708;50.824;4.408;2022-09-03T02:38:32;99948.75;;;19.79;100.00
21100;BME280;10708;50.824;4.408;2022-09-03T02:43:38;99963.22;;;19.77;100.00
21100;BME280;10708;50.824;4.408;2022-09-03T02:48:44;99956.31;;;19.74;100.00
21100;BME280;10708;50.824;4.408;2022-09-03T02:53:46;99969.19;;;19.69;100.00
21100;BME280;10708;50.824;4.408;2022-09-03T02:58:48;99967.63;;;19.67;100.00
21100;BME280;10708;50.824;4.408;2022-09-03T03:03:52;99966.78;;;19.66;100.00
21100;BME280;10708;50.824;4.408;2022-09-03T03:08:54;99961.56;;;19.65;100.00
21100;BME280;10708;50.824;4.408;2022-09-03T03:13:56;99966.91;;;19.65;100.00
21100;BME280;10708;50.824;4.408;2022-09-03T03:19:00;99961.81;;;19.62;100.00
21100;BME280;10708;50.824;4.408;2022-09-03T03:24:03;99965.59;;;19.59;100.00
21100;BME280;10708;50.824;4.408;2022-09-03T03:29:05;99965.88;;;19.56;100.00
21100;BME280;10708;50.824;4.408;2022-09-03T03:34:09;99968.53;;;19.56;100.00
21100;BME280;10708;50.824;4.408;2022-09-03T03:39:11;99968.25;;;19.59;100.00
21100;BME280;10708;50.824;4.408;2022-09-03T03:44:13;99976.03;;;19.62;100.00
21100;BME280;10708;50.824;4.408;2022-09-03T03:49:18;99983.19;;;19.62;100.00
21100;BME280;10708;50.824;4.408;2022-09-03T03:54:20;99978.16;;;19.25;100.00
21100;BME280;10708;50.824;4.408;2022-09-03T03:59:22;99991.41;;;18.82;100.00
21100;BME280;10708;50.824;4.408;2022-09-03T04:04:26;99985.50;;;18.43;100.00
21100;BME280;10708;50.824;4.408;2022-09-03T04:09:28;99987.63;;;18.16;100.00
21100;BME280;10708;50.824;4.408;2022-09-03T04:14:30;99990.59;;;18.00;100.00
21100;BME280;10708;50.824;4.408;2022-09-03T04:19:33;99991.19;;;17.93;100.00
21100;BME280;10708;50.824;4.408;2022-09-03T04:24:35;99980.84;;;17.88;100.00
21100;BME280;10708;50.824;4.408;2022-09-03T04:29:38;99974.66;;;17.77;100.00
21100;BME280;10708;50.824;4.408;2022-09-03T04:34:42;99975.31;;;17.67;100.00
21100;BME280;10708;50.824;4.408;2022-09-03T04:39:44;99970.53;;;17.60;100.00
21100;BME280;10708;50.824;4.408;2022-09-03T04:44:46;99977.09;;;17.43;100.00
21100;BME280;10708;50.824;4.408;2022-09-03T04:49:50;99967.34;;;17.31;100.00
21100;BME280;10708;50.824;4.408;2022-09-03T04:54:53;99970.72;;;17.09;100.00
21100;BME280;10708;50.824;4.408;2022-09-03T04:59:55;99963.50;;;16.98;100.00
21100;BME280;10708;50.824;4.408;2022-09-03T05:04:59;99970.63;;;16.98;100.00
21100;BME280;10708;50.824;4.408;2022-09-03T05:10:01;99964.06;;;16.91;100.00
21100;BME280;10708;50.824;4.408;2022-09-03T05:15:05;99950.66;;;16.92;100.00
21100;BME280;10708;50.824;4.408;2022-09-03T05:20:09;99963.81;;;17.07;100.00
21100;BME280;10708;50.824;4.408;2022-09-03T05:25:11;99964.00;;;17.16;100.00
21100;BME280;10708;50.824;4.408;2022-09-03T05:30:14;99961.38;;;17.27;100.00
21100;BME280;10708;50.824;4.408;2022-09-03T05:35:17;99961.81;;;17.34;100.00
21100;BME280;10708;50.824;4.408;2022-09-03T05:40:19;99974.78;;;17.39;100.00
21100;BME280;10708;50.824;4.408;2022-09-03T05:45:21;99969.75;;;17.47;100.00
21100;BME280;10708;50.824;4.408;2022-09-03T05:50:25;99968.09;;;17.57;100.00
21100;BME280;10708;50.824;4.408;2022-09-03T05:55:27;99980.91;;;17.64;100.00
21100;BME280;10708;50.824;4.408;2022-09-03T06:00:30;99983.66;;;17.63;100.00
21100;BME280;10708;50.824;4.408;2022-09-03T06:05:33;99979.94;;;17.65;100.00
21100;BME280;10708;50.824;4.408;2022-09-03T06:10:35;99989.38;;;17.69;100.00
21100;BME280;10708;50.824;4.408;2022-09-03T06:15:37;99988.94;;;17.76;100.00
21100;BME280;10708;50.824;4.408;2022-09-03T06:20:41;99998.75;;;17.75;100.00
21100;BME280;10708;50.824;4.408;2022-09-03T06:25:44;100007.34;;;17.79;100.00
21100;BME280;10708;50.824;4.408;2022-09-03T06:30:47;100011.81;;;17.78;100.00
21100;BME280;10708;50.824;4.408;2022-09-03T06:35:53;100010.94;;;17.78;100.00
21100;BME280;10708;50.824;4.408;2022-09-03T06:40:59;100013.88;;;17.62;100.00
21100;BME280;10708;50.824;4.408;2022-09-03T06:46:03;100029.66;;;17.65;100.00
21100;BME280;10708;50.824;4.408;2022-09-03T06:51:10;100031.97;;;17.69;100.00
21100;BME280;10708;50.824;4.408;2022-09-03T06:56:13;100037.25;;;17.82;100.00
21100;BME280;10708;50.824;4.408;2022-09-03T07:01:18;100041.69;;;17.94;100.00
21100;BME280;10708;50.824;4.408;2022-09-03T07:06:23;100041.16;;;18.13;100.00
21100;BME280;10708;50.824;4.408;2022-09-03T07:11:28;100044.72;;;18.25;100.00
21100;BME280;10708;50.824;4.408;2022-09-03T07:16:33;100039.28;;;18.37;100.00
21100;BME280;10708;50.824;4.408;2022-09-03T07:21:37;100042.94;;;18.48;100.00
21100;BME280;10708;50.824;4.408;2022-09-03T07:26:41;100042.22;;;18.57;100.00
21100;BME280;10708;50.824;4.408;2022-09-03T07:31:46;100045.94;;;18.67;100.00
21100;BME280;10708;50.824;4.408;2022-09-03T07:36:52;100049.44;;;18.67;100.00
21100;BME280;10708;50.824;4.408;2022-09-03T07:41:54;100055.63;;;18.68;100.00
21100;BME280;10708;50.824;4.408;2022-09-03T07:46:58;100058.81;;;18.73;100.00
21100;BME280;10708;50.824;4.408;2022-09-03T07:52:02;100056.38;;;18.81;100.00
21100;BME280;10708;50.824;4.408;2022-09-03T07:57:04;100048.28;;;18.94;100.00
21100;BME280;10708;50.824;4.408;2022-09-03T08:02:06;100055.69;;;19.12;100.00
21100;BME280;10708;50.824;4.408;2022-09-03T08:07:10;100065.16;;;19.50;100.00
21100;BME280;10708;50.824;4.408;2022-09-03T08:12:12;100061.69;;;19.81;100.00
21100;BME280;10708;50.824;4.408;2022-09-03T08:17:17;100064.97;;;20.17;100.00
21100;BME280;10708;50.824;4.408;2022-09-03T08:22:20;100067.28;;;20.53;100.00
21100;BME280;10708;50.824;4.408;2022-09-03T08:27:25;100070.44;;;20.89;100.00
21100;BME280;10708;50.824;4.408;2022-09-03T08:32:27;100075.59;;;21.02;100.00
21100;BME280;10708;50.824;4.408;2022-09-03T08:37:30;100079.16;;;21.12;100.00
21100;BME280;10708;50.824;4.408;2022-09-03T08:42:42;100089.94;;;21.21;100.00
21100;BME280;10708;50.824;4.408;2022-09-03T08:47:52;100095.56;;;21.49;100.00
21100;BME280;10708;50.824;4.408;2022-09-03T08:53:07;100091.22;;;21.57;100.00
21100;BME280;10708;50.824;4.408;2022-09-03T08:58:12;100097.44;;;21.67;100.00
21100;BME280;10708;50.824;4.408;2022-09-03T09:03:32;100092.13;;;21.96;100.00
21100;BME280;10708;50.824;4.408;2022-09-03T09:08:44;100096.31;;;22.29;100.00
21100;BME280;10708;50.824;4.408;2022-09-03T09:13:55;100098.44;;;22.64;100.00
21100;BME280;10708;50.824;4.408;2022-09-03T09:19:10;100095.16;;;22.80;100.00
21100;BME280;10708;50.824;4.408;2022-09-03T09:24:21;100099.25;;;22.94;100.00
21100;BME280;10708;50.824;4.408;2022-09-03T09:29:26;100095.97;;;23.00;100.00
21100;BME280;10708;50.824;4.408;2022-09-03T09:34:33;100099.09;;;22.95;100.00
21100;BME280;10708;50.824;4.408;2022-09-03T09:39:39;100101.47;;;22.98;100.00
21100;BME280;10708;50.824;4.408;2022-09-03T09:44:42;100104.63;;;22.84;100.00
21100;BME280;10708;50.824;4.408;2022-09-03T09:49:51;100109.59;;;22.79;100.00
21100;BME280;10708;50.824;4.408;2022-09-03T09:55:05;100112.41;;;22.77;100.00
21100;BME280;10708;50.824;4.408;2022-09-03T10:00:10;100111.13;;;22.72;100.00
21100;BME280;10708;50.824;4.408;2022-09-03T10:05:14;100109.41;;;22.71;100.00
21100;BME280;10708;50.824;4.408;2022-09-03T10:10:21;100104.66;;;22.55;100.00
21100;BME280;10708;50.824;4.408;2022-09-03T10:15:30;100097.72;;;22.62;100.00
21100;BME280;10708;50.824;4.408;2022-09-03T10:20:40;100103.19;;;22.90;100.00
21100;BME280;10708;50.824;4.408;2022-09-03T10:25:56;100111.34;;;23.07;100.00
21100;BME280;10708;50.824;4.408;2022-09-03T10:31:31;100114.66;;;23.38;100.00
21100;BME280;10708;50.824;4.408;2022-09-03T10:36:44;100108.25;;;23.76;100.00
21100;BME280;10708;50.824;4.408;2022-09-03T10:41:57;100108.56;;;24.18;100.00
21100;BME280;10708;50.824;4.408;2022-09-03T10:47:14;100102.53;;;24.52;100.00
21100;BME280;10708;50.824;4.408;2022-09-03T10:52:26;100103.53;;;24.51;100.00
21100;BME280;10708;50.824;4.408;2022-09-03T10:57:37;100087.28;;;24.86;100.00
21100;BME280;10708;50.824;4.408;2022-09-03T11:03:09;100091.34;;;25.08;100.00
21100;BME280;10708;50.824;4.408;2022-09-03T11:08:24;100078.41;;;25.12;100.00
21100;BME280;10708;50.824;4.408;2022-09-03T11:13:33;100081.13;;;25.12;100.00
21100;BME280;10708;50.824;4.408;2022-09-03T11:18:41;100070.97;;;25.40;100.00
21100;BME280;10708;50.824;4.408;2022-09-03T11:23:47;100068.47;;;25.46;100.00
21100;BME280;10708;50.824;4.408;2022-09-03T11:28:58;100069.56;;;25.27;100.00
21100;BME280;10708;50.824;4.408;2022-09-03T11:34:05;100065.41;;;25.07;100.00
21100;BME280;10708;50.824;4.408;2022-09-03T11:39:12;100071.13;;;24.86;100.00
21100;BME280;10708;50.824;4.408;2022-09-03T11:44:20;100070.63;;;24.83;100.00
21100;BME280;10708;50.824;4.408;2022-09-03T11:49:28;100058.78;;;24.76;100.00
21100;BME280;10708;50.824;4.408;2022-09-03T11:54:31;100057.09;;;24.92;100.00
21100;BME280;10708;50.824;4.408;2022-09-03T11:59:35;100049.22;;;24.99;100.00
21100;BME280;10708;50.824;4.408;2022-09-03T12:04:44;100047.09;;;25.11;100.00
21100;BME280;10708;50.824;4.408;2022-09-03T12:10:03;100044.56;;;25.43;100.00
21100;BME280;10708;50.824;4.408;2022-09-03T12:15:17;100037.41;;;25.76;100.00
21100;BME280;10708;50.824;4.408;2022-09-03T12:20:26;100045.97;;;26.30;100.00
21100;BME280;10708;50.824;4.408;2022-09-03T12:25:28;100030.78;;;26.53;100.00
21100;BME280;10708;50.824;4.408;2022-09-03T12:30:32;100033.09;;;26.97;100.00
21100;BME280;10708;50.824;4.408;2022-09-03T12:35:34;100032.88;;;27.23;100.00
21100;BME280;10708;50.824;4.408;2022-09-03T12:40:41;100032.88;;;27.23;100.00
21100;BME280;10708;50.824;4.408;2022-09-03T12:45:46;100035.44;;;27.08;100.00
21100;BME280;10708;50.824;4.408;2022-09-03T12:51:00;100034.50;;;26.52;100.00
21100;BME280;10708;50.824;4.408;2022-09-03T12:56:03;100035.16;;;26.38;100.00
21100;BME280;10708;50.824;4.408;2022-09-03T13:01:08;100029.44;;;26.41;100.00
21100;BME280;10708;50.824;4.408;2022-09-03T13:06:14;100028.38;;;26.26;100.00
21100;BME280;10708;50.824;4.408;2022-09-03T13:11:21;100020.00;;;26.29;100.00
21100;BME280;10708;50.824;4.408;2022-09-03T13:16:50;100028.59;;;26.24;100.00
21100;BME280;10708;50.824;4.408;2022-09-03T13:22:02;100020.66;;;26.23;100.00
21100;BME280;10708;50.824;4.408;2022-09-03T13:27:12;100023.53;;;26.29;100.00
21100;BME280;10708;50.824;4.408;2022-09-03T13:32:28;100011.91;;;26.29;100.00
21100;BME280;10708;50.824;4.408;2022-09-03T13:37:37;100021.13;;;26.18;100.00
21100;BME280;10708;50.824;4.408;2022-09-03T13:42:44;100026.72;;;26.49;100.00
21100;BME280;10708;50.824;4.408;2022-09-03T13:47:56;100020.34;;;26.42;100.00
21100;BME280;10708;50.824;4.408;2022-09-03T13:53:25;100023.50;;;26.45;100.00
21100;BME280;10708;50.824;4.408;2022-09-03T13:58:37;100019.34;;;26.35;100.00
21100;BME280;10708;50.824;4.408;2022-09-03T14:03:47;100014.75;;;26.27;100.00
21100;BME280;10708;50.824;4.408;2022-09-03T14:09:08;100018.94;;;26.05;100.00
21100;BME280;10708;50.824;4.408;2022-09-03T14:14:18;100026.69;;;25.92;100.00
21100;BME280;10708;50.824;4.408;2022-09-03T14:19:31;100031.88;;;25.86;100.00
21100;BME280;10708;50.824;4.408;2022-09-03T14:24:43;100031.72;;;25.79;100.00
21100;BME280;10708;50.824;4.408;2022-09-03T14:29:53;100030.19;;;25.77;100.00
21100;BME280;10708;50.824;4.408;2022-09-03T14:35:11;100032.16;;;25.66;100.00
21100;BME280;10708;50.824;4.408;2022-09-03T14:40:20;100027.47;;;25.68;100.00
21100;BME280;10708;50.824;4.408;2022-09-03T14:45:40;100041.63;;;25.70;100.00
21100;BME280;10708;50.824;4.408;2022-09-03T14:51:01;100040.56;;;25.21;100.00
21100;BME280;10708;50.824;4.408;2022-09-03T14:56:19;100045.59;;;24.90;100.00
21100;BME280;10708;50.824;4.408;2022-09-03T15:01:28;100045.50;;;24.56;100.00
21100;BME280;10708;50.824;4.408;2022-09-03T15:06:40;100046.63;;;24.28;100.00
21100;BME280;10708;50.824;4.408;2022-09-03T15:11:50;100046.13;;;24.24;100.00
21100;BME280;10708;50.824;4.408;2022-09-03T15:16:59;100042.94;;;24.29;100.00
21100;BME280;10708;50.824;4.408;2022-09-03T15:22:11;100050.94;;;24.39;100.00
21100;BME280;10708;50.824;4.408;2022-09-03T15:27:30;100052.47;;;24.41;100.00
21100;BME280;10708;50.824;4.408;2022-09-03T15:32:53;100058.91;;;24.48;100.00
21100;BME280;10708;50.824;4.408;2022-09-03T15:38:02;100069.09;;;24.54;100.00
21100;BME280;10708;50.824;4.408;2022-09-03T15:43:09;100064.75;;;24.61;100.00
21100;BME280;10708;50.824;4.408;2022-09-03T15:48:18;100067.59;;;24.60;100.00
21100;BME280;10708;50.824;4.408;2022-09-03T15:53:32;100081.66;;;24.18;100.00
21100;BME280;10708;50.824;4.408;2022-09-03T15:58:40;100082.00;;;23.70;100.00
21100;BME280;10708;50.824;4.408;2022-09-03T16:03:55;100093.75;;;23.32;100.00
21100;BME280;10708;50.824;4.408;2022-09-03T16:09:06;100090.41;;;23.21;100.00
21100;BME280;10708;50.824;4.408;2022-09-03T16:14:14;100086.16;;;23.18;100.00
21100;BME280;10708;50.824;4.408;2022-09-03T16:19:23;100095.34;;;23.25;100.00
21100;BME280;10708;50.824;4.408;2022-09-03T16:24:33;100084.81;;;23.41;100.00
21100;BME280;10708;50.824;4.408;2022-09-03T16:29:39;100083.88;;;23.60;100.00
21100;BME280;10708;50.824;4.408;2022-09-03T16:34:48;100086.75;;;23.76;100.00
21100;BME280;10708;50.824;4.408;2022-09-03T16:40:04;100096.78;;;23.84;100.00
21100;BME280;10708;50.824;4.408;2022-09-03T16:45:18;100101.59;;;23.80;100.00
21100;BME280;10708;50.824;4.408;2022-09-03T16:50:36;100094.19;;;23.65;100.00
21100;BME280;10708;50.824;4.408;2022-09-03T16:55:55;100100.31;;;23.57;100.00
21100;BME280;10708;50.824;4.408;2022-09-03T17:01:07;100100.16;;;23.59;100.00
21100;BME280;10708;50.824;4.408;2022-09-03T17:06:40;100103.22;;;23.73;100.00
21100;BME280;10708;50.824;4.408;2022-09-03T17:11:58;100115.19;;;23.79;100.00
21100;BME280;10708;50.824;4.408;2022-09-03T17:17:11;100120.09;;;23.66;100.00
21100;BME280;10708;50.824;4.408;2022-09-03T17:22:29;100126.34;;;23.57;100.00
21100;BME280;10708;50.824;4.408;2022-09-03T17:27:44;100123.97;;;23.53;100.00
21100;BME280;10708;50.824;4.408;2022-09-03T17:33:21;100130.19;;;23.54;100.00
21100;BME280;10708;50.824;4.408;2022-09-03T17:38:50;100132.41;;;23.49;100.00
21100;BME280;10708;50.824;4.408;2022-09-03T17:44:04;100136.59;;;23.34;100.00
21100;BME280;10708;50.824;4.408;2022-09-03T17:49:13;100140.31;;;23.23;100.00
21100;BME280;10708;50.824;4.408;2022-09-03T17:54:25;100148.25;;;23.15;100.00
21100;BME280;10708;50.824;4.408;2022-09-03T17:59:37;100154.78;;;23.03;100.00
21100;BME280;10708;50.824;4.408;2022-09-03T18:04:48;100161.00;;;22.94;100.00
21100;BME280;10708;50.824;4.408;2022-09-03T18:10:01;100167.25;;;22.85;100.00
21100;BME280;10708;50.824;4.408;2022-09-03T18:15:11;100181.75;;;22.72;100.00
21100;BME280;10708;50.824;4.408;2022-09-03T18:20:16;100188.97;;;22.62;100.00
21100;BME280;10708;50.824;4.408;2022-09-03T18:25:38;100193.34;;;22.54;100.00
21100;BME280;10708;50.824;4.408;2022-09-03T18:31:00;100204.47;;;22.39;100.00
21100;BME280;10708;50.824;4.408;2022-09-03T18:36:20;100217.00;;;22.29;100.00
21100;BME280;10708;50.824;4.408;2022-09-03T18:41:53;100217.97;;;22.19;100.00
21100;BME280;10708;50.824;4.408;2022-09-03T18:47:28;100223.31;;;22.09;100.00
21100;BME280;10708;50.824;4.408;2022-09-03T18:52:55;100229.50;;;22.00;100.00
21100;BME280;10708;50.824;4.408;2022-09-03T18:58:22;100226.47;;;21.93;100.00
21100;BME280;10708;50.824;4.408;2022-09-03T19:03:53;100228.16;;;21.85;100.00
21100;BME280;10708;50.824;4.408;2022-09-03T19:09:21;100235.97;;;21.77;100.00
21100;BME280;10708;50.824;4.408;2022-09-03T19:14:52;100241.75;;;21.72;100.00
21100;BME280;10708;50.824;4.408;2022-09-03T19:20:19;100244.13;;;21.65;100.00
21100;BME280;10708;50.824;4.408;2022-09-03T19:25:41;100241.25;;;21.57;100.00
21100;BME280;10708;50.824;4.408;2022-09-03T19:31:29;100250.94;;;21.49;100.00
21100;BME280;10708;50.824;4.408;2022-09-03T19:37:00;100254.81;;;21.35;100.00
21100;BME280;10708;50.824;4.408;2022-09-03T19:42:29;100258.28;;;21.26;100.00
21100;BME280;10708;50.824;4.408;2022-09-03T19:48:02;100270.56;;;21.17;100.00
21100;BME280;10708;50.824;4.408;2022-09-03T19:53:27;100266.09;;;21.07;100.00
21100;BME280;10708;50.824;4.408;2022-09-03T19:58:54;100271.38;;;20.97;100.00
21100;BME280;10708;50.824;4.408;2022-09-03T20:04:15;100274.81;;;20.88;100.00
21100;BME280;10708;50.824;4.408;2022-09-03T20:09:39;100275.72;;;20.77;100.00
21100;BME280;10708;50.824;4.408;2022-09-03T20:15:02;100280.13;;;20.67;100.00
21100;BME280;10708;50.824;4.408;2022-09-03T20:20:14;100278.94;;;20.60;100.00
21100;BME280;10708;50.824;4.408;2022-09-03T20:25:31;100279.69;;;20.51;100.00
21100;BME280;10708;50.824;4.408;2022-09-03T20:30:41;100279.22;;;20.46;100.00
21100;BME280;10708;50.824;4.408;2022-09-03T20:35:53;100293.69;;;20.43;100.00
21100;BME280;10708;50.824;4.408;2022-09-03T20:41:09;100296.72;;;20.39;100.00
21100;BME280;10708;50.824;4.408;2022-09-03T20:46:27;100297.00;;;20.36;100.00
21100;BME280;10708;50.824;4.408;2022-09-03T20:51:36;100301.69;;;20.32;100.00
21100;BME280;10708;50.824;4.408;2022-09-03T20:57:00;100306.53;;;20.27;100.00
21100;BME280;10708;50.824;4.408;2022-09-03T21:02:13;100317.84;;;20.19;100.00
21100;BME280;10708;50.824;4.408;2022-09-03T21:07:26;100319.44;;;20.11;100.00
21100;BME280;10708;50.824;4.408;2022-09-03T21:12:38;100324.78;;;20.00;100.00
21100;BME280;10708;50.824;4.408;2022-09-03T21:17:53;100330.84;;;19.90;100.00
21100;BME280;10708;50.824;4.408;2022-09-03T21:23:06;100334.34;;;19.80;100.00
21100;BME280;10708;50.824;4.408;2022-09-03T21:28:18;100333.97;;;19.73;100.00
21100;BME280;10708;50.824;4.408;2022-09-03T21:33:26;100339.94;;;19.66;100.00
21100;BME280;10708;50.824;4.408;2022-09-03T21:38:32;100337.69;;;19.60;100.00
21100;BME280;10708;50.824;4.408;2022-09-03T21:43:43;100344.50;;;19.52;100.00
21100;BME280;10708;50.824;4.408;2022-09-03T21:48:50;100333.25;;;19.47;100.00
21100;BME280;10708;50.824;4.408;2022-09-03T21:53:58;100338.13;;;19.42;100.00
21100;BME280;10708;50.824;4.408;2022-09-03T21:59:05;100337.47;;;19.39;100.00
21100;BME280;10708;50.824;4.408;2022-09-03T22:04:12;100332.25;;;19.37;100.00
21100;BME280;10708;50.824;4.408;2022-09-03T22:09:19;100334.31;;;19.34;100.00
21100;BME280;10708;50.824;4.408;2022-09-03T22:14:29;100330.16;;;19.30;100.00
21100;BME280;10708;50.824;4.408;2022-09-03T22:19:33;100341.94;;;19.27;100.00
21100;BME280;10708;50.824;4.408;2022-09-03T22:24:41;100343.88;;;19.25;100.00
21100;BME280;10708;50.824;4.408;2022-09-03T22:30:00;100342.28;;;19.23;100.00
21100;BME280;10708;50.824;4.408;2022-09-03T22:35:16;100344.31;;;19.19;100.00
21100;BME280;10708;50.824;4.408;2022-09-03T22:40:23;100342.72;;;19.16;100.00
21100;BME280;10708;50.824;4.408;2022-09-03T22:45:37;100346.50;;;19.14;100.00
21100;BME280;10708;50.824;4.408;2022-09-03T22:50:50;100352.69;;;19.14;100.00
21100;BME280;10708;50.824;4.408;2022-09-03T22:56:03;100351.84;;;19.14;100.00
21100;BME280;10708;50.824;4.408;2022-09-03T23:01:13;100359.31;;;19.09;100.00
21100;BME280;10708;50.824;4.408;2022-09-03T23:06:23;100360.28;;;19.08;100.00
21100;BME280;10708;50.824;4.408;2022-09-03T23:11:30;100367.78;;;19.03;100.00
21100;BME280;10708;50.824;4.408;2022-09-03T23:16:37;100374.19;;;19.00;100.00
21100;BME280;10708;50.824;4.408;2022-09-03T23:21:48;100369.72;;;19.01;100.00
21100;BME280;10708;50.824;4.408;2022-09-03T23:26:51;100369.22;;;18.96;100.00
21100;BME280;10708;50.824;4.408;2022-09-03T23:31:56;100380.97;;;18.93;100.00
21100;BME280;10708;50.824;4.408;2022-09-03T23:37:18;100380.13;;;18.93;100.00
21100;BME280;10708;50.824;4.408;2022-09-03T23:42:33;100382.03;;;18.91;100.00
21100;BME280;10708;50.824;4.408;2022-09-03T23:47:42;100400.81;;;18.89;100.00
21100;BME280;10708;50.824;4.408;2022-09-03T23:53:16;100388.44;;;18.88;100.00
21100;BME280;10708;50.824;4.408;2022-09-03T23:58:27;100389.53;;;18.86;100.00
